ADDS TAF Board (Experimental) INFO

IDs: Format: Expanded Condensed

Updated at: 0509 UTC 26 Oct 2014

KEWR - Newark Intl, NJ, US

Issued at 0424 UTC 26 Oct 2014
Time0505Z26/06Z26/07Z26/08Z26/09Z26/10Z26/11Z26/12Z26/13Z26/14Z26/15Z26/16Z26/17Z26/18Z
TypeOBSPRVLPRVLPRVLPRVLPRVLPRVLPRVLPRVLPRVLPRVLPRVLPRVLPRVL
VIS10>6>6>6>6>6>6>6>6>6>6>6>6>6
CIG655050--------------50505050
CoverOVCBKNBKNSCTSCTSCTSCTSCTSCTSCTBKNBKNBKNBKN
FltCat--VFRVFRVFRVFRVFRVFRVFRVFRVFRVFRVFRVFRVFR
WX----------------------------
WDir310260260280280280280280280280290290290290
WSpd912121212121212121220202020
WGst--18182020202020202030303030
R04/22
XWnd910101212121212121220202020
XGst--15151919191919191930303030
HWnd2-7-7-3-3-3-3-3-3-3-2-2-2-2
HGst---11-11-6-6-6-6-6-6-6-3-3-3-3
R11/29
XWnd5-3-311111115555
XGst---5-522222228888
HWnd-7-12-12-12-12-12-12-12-12-12-19-19-19-19
HGst---17-17-20-20-20-20-20-20-20-29-29-29-29
Raw TAF
KEWR 260424Z 2604/2706 26012G18KT P6SM BKN050
  TEMPO 2604/2606 30017G25KT 6SM -SHRA
  FM260800 28012G20KT P6SM SCT050
  FM261500 29020G30KT P6SM BKN050
  FM262300 29015G25KT P6SM FEW050
  FM270200 29012KT P6SM FEW050


Raw METAR
KEWR 260505Z 31009KT 10SM FEW049 BKN065 OVC110 17/07 A2958 RMK AO2 WSHFT 0445
KEWR 260451Z 30012G22KT 10SM FEW070 BKN110 16/07 A2959 RMK AO2 SLP020 T01610072 402110089

TAF Board Legend

Hazard VFR MVFR IFR LIFR
Visibility (sm) >5 3≤X≤5 1≤X<3 <1
Ceiling (100 ft) >30 10≤X≤30 5≤X<10 <5
Wind Speed (kt) <10 10≤X<20 20≤X<30 ≥30
Wind Gust (kt) <15 15≤X<25 25≤X<35 ≥35
Weather No Wx Reported VCTS,-TS,-FZRA TS,FZRA +TS,+FZRA


Page loaded:  05:09 UTC  |   10:09 PM Pacific  |   11:09 PM Mountain  |   12:09 AM Central  |   01:09 AM Eastern

 

ADVISORIES

FORECASTS

FORECASTS

OBSERVATIONS

USER TOOLS

ABOUT US